Time;durP1;ratioP1;P1;durP2;ratioP2;P2;SDS_P1;SDS_P2;PMS_P1;PMS_P2;Temp;Humidity;BMP_temperature;BMP_pressure;BME280_temperature;BME280_humidity;BME280_pressure;Samples;Min_cycle;Max_cycle;Signal;HPM_P1;HPM_P2
2022/04/12 00:01:08;;;;;;;7.50;5.30;;;5.10;99.90;;;;;;5074148;28;20024;-50
2022/04/12 00:03:35;;;;;;;7.75;4.55;;;5.10;99.90;;;;;;5073731;28;20028;-49
2022/04/12 00:06:01;;;;;;;7.75;4.10;;;5.20;99.90;;;;;;5073881;28;20025;-48
2022/04/12 00:08:27;;;;;;;8.45;4.65;;;5.20;99.90;;;;;;5071689;28;20043;-47
2022/04/12 00:10:53;;;;;;;8.00;4.28;;;5.20;99.90;;;;;;5073889;28;20020;-50
2022/04/12 00:13:20;;;;;;;7.53;4.15;;;5.30;99.90;;;;;;5074353;28;20092;-51
2022/04/12 00:15:48;;;;;;;9.93;4.10;;;5.30;99.90;;;;;;5075302;28;20468;-49
2022/04/12 00:20:59;;;;;;;6.97;3.83;;;5.10;99.90;;;;;;5073897;28;20039;-48
2022/04/12 00:23:25;;;;;;;8.15;3.55;;;5.10;99.90;;;;;;5073498;28;20028;-49
2022/04/12 00:25:53;;;;;;;5.47;3.08;;;5.20;99.90;;;;;;5054836;28;20046;-48
2022/04/12 00:28:19;;;;;;;4.57;3.17;;;5.20;99.90;;;;;;5073479;28;20430;-50
2022/04/12 00:30:45;;;;;;;6.47;3.15;;;5.40;99.90;;;;;;5073135;28;20388;-47
2022/04/12 00:33:11;;;;;;;4.82;3.00;;;5.30;99.90;;;;;;5056400;28;20021;-48
2022/04/12 00:35:37;;;;;;;6.18;4.00;;;5.30;99.90;;;;;;5034016;28;20040;-50
2022/04/12 00:38:17;;;;;;;6.95;4.20;;;5.30;99.90;;;;;;5051406;28;20381;-48
2022/04/12 00:40:45;;;;;;;6.63;4.15;;;5.20;99.90;;;;;;5053330;28;20064;-50
2022/04/12 00:43:11;;;;;;;8.38;4.30;;;5.10;99.90;;;;;;5053475;28;20037;-49
2022/04/12 00:45:36;;;;;;;7.70;4.28;;;5.00;99.90;;;;;;5052938;28;20398;-49
2022/04/12 00:48:02;;;;;;;6.97;3.67;;;5.00;99.90;;;;;;5053577;28;20560;-50
2022/04/12 00:50:28;;;;;;;7.43;4.05;;;4.90;99.90;;;;;;5018097;28;20102;-50
2022/04/12 00:52:56;;;;;;;6.45;3.75;;;4.90;99.90;;;;;;5053220;28;20029;-48
2022/04/12 00:55:22;;;;;;;7.70;4.60;;;4.90;99.90;;;;;;5053462;28;20059;-48
2022/04/12 00:57:48;;;;;;;6.13;3.47;;;5.00;99.90;;;;;;5017898;28;20068;-50
2022/04/12 01:00:16;;;;;;;7.15;4.38;;;4.90;99.90;;;;;;5053057;28;20040;-50
2022/04/12 01:02:42;;;;;;;6.55;3.72;;;4.80;99.90;;;;;;5034779;28;20476;-49
2022/04/12 01:05:08;;;;;;;7.43;4.05;;;4.70;99.90;;;;;;5053608;28;20124;-50
2022/04/12 01:07:36;;;;;;;6.13;3.67;;;4.70;99.90;;;;;;5034593;28;20525;-48
2022/04/12 01:10:06;;;;;;;7.38;4.00;;;4.60;99.90;;;;;;5052885;28;20040;-48
2022/04/12 01:12:38;;;;;;;7.55;4.20;;;4.70;99.90;;;;;;5053464;28;20033;-48
2022/04/12 01:15:11;;;;;;;7.80;4.47;;;4.60;99.90;;;;;;5053139;28;20033;-47
2022/04/12 01:17:37;;;;;;;8.07;4.18;;;4.50;99.90;;;;;;5017939;28;20112;-50
2022/04/12 01:20:03;;;;;;;7.03;4.00;;;4.40;99.90;;;;;;5034258;28;20179;-48
2022/04/12 01:22:34;;;;;;;8.30;4.55;;;4.20;99.90;;;;;;5034841;28;20076;-47
2022/04/12 01:25:00;;;;;;;10.75;5.03;;;4.20;99.90;;;;;;5052743;28;20120;-48
2022/04/12 01:27:27;;;;;;;6.47;3.95;;;4.10;99.90;;;;;;5052803;28;20480;-49
2022/04/12 01:29:54;;;;;;;8.00;4.55;;;4.20;99.90;;;;;;5054593;28;20534;-48
2022/04/12 01:32:20;;;;;;;6.75;3.60;;;4.20;99.90;;;;;;5056426;28;20032;-49
2022/04/12 01:34:45;;;;;;;7.50;3.63;;;4.10;99.90;;;;;;5056388;28;20032;-49
2022/04/12 01:37:11;;;;;;;7.72;4.05;;;3.90;99.90;;;;;;5056077;28;20052;-49
2022/04/12 01:39:37;;;;;;;9.13;3.83;;;3.90;99.90;;;;;;5056548;28;20064;-48
2022/04/12 01:42:03;;;;;;;6.68;4.43;;;3.90;99.90;;;;;;5056324;28;20072;-50
2022/04/12 01:44:28;;;;;;;8.05;4.32;;;4.00;99.90;;;;;;5037672;28;20481;-49
2022/04/12 01:46:54;;;;;;;7.22;4.32;;;3.90;99.90;;;;;;5056147;28;20037;-47
2022/04/12 01:49:20;;;;;;;8.77;4.47;;;3.80;99.90;;;;;;5037642;28;20060;-48
2022/04/12 01:51:45;;;;;;;9.23;4.80;;;3.80;99.90;;;;;;5056134;28;20040;-48
2022/04/12 01:54:11;;;;;;;8.48;5.03;;;4.00;99.90;;;;;;5037412;28;20037;-48
2022/04/12 01:56:39;;;;;;;10.60;4.80;;;4.40;99.90;;;;;;5056072;28;20040;-51
2022/04/12 01:59:04;;;;;;;9.18;4.82;;;4.50;99.90;;;;;;5056408;28;20060;-48
2022/04/12 02:01:30;;;;;;;10.65;5.47;;;4.20;99.90;;;;;;5055870;28;20068;-47
2022/04/12 02:03:56;;;;;;;7.38;4.10;;;4.10;99.90;;;;;;5056038;28;20036;-48
2022/04/12 02:06:22;;;;;;;12.63;7.60;;;4.20;99.90;;;;;;5036840;28;20048;-49
2022/04/12 02:08:48;;;;;;;30.80;14.45;;;4.40;99.90;;;;;;5055823;28;20036;-48
2022/04/12 02:11:14;;;;;;;10.63;5.22;;;4.40;99.90;;;;;;5055843;28;20033;-47
2022/04/12 02:13:40;;;;;;;8.82;4.70;;;4.30;99.90;;;;;;5056002;28;20048;-49
2022/04/12 02:16:06;;;;;;;11.18;6.70;;;4.40;99.90;;;;;;5055477;28;20033;-47
2022/04/12 02:18:32;;;;;;;7.70;4.55;;;4.50;99.90;;;;;;5055833;28;20036;-48
2022/04/12 02:20:57;;;;;;;8.48;4.90;;;4.40;99.90;;;;;;5055701;28;20029;-48
2022/04/12 02:23:23;;;;;;;9.52;5.18;;;4.50;99.90;;;;;;5056014;28;20345;-50
2022/04/12 02:25:49;;;;;;;8.77;4.65;;;4.40;99.90;;;;;;5055576;28;20090;-49
2022/04/12 02:28:16;;;;;;;9.68;5.13;;;4.40;99.90;;;;;;5055224;28;20048;-47
2022/04/12 02:30:43;;;;;;;9.18;5.38;;;4.50;99.90;;;;;;5055509;28;20090;-48
2022/04/12 02:33:09;;;;;;;11.30;5.30;;;4.50;99.90;;;;;;5055611;28;20036;-48
2022/04/12 02:35:35;;;;;;;11.73;5.20;;;4.30;99.90;;;;;;5055252;28;20047;-47
2022/04/12 02:38:01;;;;;;;10.80;5.22;;;4.00;99.90;;;;;;5055248;28;20120;-49
2022/04/12 02:40:27;;;;;;;10.25;5.95;;;3.90;99.90;;;;;;5053033;28;20110;-48
2022/04/12 02:42:53;;;;;;;12.73;5.50;;;3.80;99.90;;;;;;5019881;28;20051;-48
2022/04/12 02:45:18;;;;;;;10.98;5.50;;;3.80;99.90;;;;;;5032644;28;20111;-50
2022/04/12 02:47:44;;;;;;;8.90;4.97;;;3.60;99.90;;;;;;5032570;28;20088;-49
2022/04/12 02:50:10;;;;;;;12.23;5.82;;;3.50;99.90;;;;;;5032753;28;20525;-50
2022/04/12 02:52:36;;;;;;;7.07;5.03;;;3.30;99.90;;;;;;5016163;28;20397;-49
2022/04/12 02:55:02;;;;;;;8.68;5.10;;;3.30;99.90;;;;;;5032774;28;20041;-48
2022/04/12 02:57:28;;;;;;;8.65;5.05;;;3.20;99.90;;;;;;5032497;28;20037;-50
2022/04/12 02:59:54;;;;;;;9.05;5.25;;;3.20;99.90;;;;;;5032534;28;20041;-48
2022/04/12 03:02:19;;;;;;;10.52;6.45;;;3.10;99.90;;;;;;5015892;28;20057;-50
2022/04/12 03:04:45;;;;;;;10.20;6.05;;;3.10;99.90;;;;;;5015856;28;20046;-49
2022/04/12 03:07:11;;;;;;;10.90;5.95;;;3.10;99.90;;;;;;5032527;28;20053;-48
2022/04/12 03:09:37;;;;;;;11.57;6.25;;;3.00;99.90;;;;;;5016006;28;20084;-49
2022/04/12 03:12:04;;;;;;;9.23;5.63;;;3.00;99.90;;;;;;5015604;28;20041;-48
2022/04/12 03:14:30;;;;;;;6.47;4.43;;;3.00;99.90;;;;;;4999688;28;20096;-50
2022/04/12 03:16:56;;;;;;;10.98;5.63;;;3.10;99.90;;;;;;5049075;28;20051;-50
2022/04/12 03:19:21;;;;;;;9.95;4.90;;;3.40;99.90;;;;;;5054455;28;20037;-47
2022/04/12 03:21:47;;;;;;;10.02;5.25;;;3.40;99.90;;;;;;5054656;28;20029;-50
2022/04/12 03:24:13;;;;;;;10.88;5.10;;;3.30;99.90;;;;;;5004819;28;20076;-48
2022/04/12 03:26:39;;;;;;;8.13;5.03;;;3.30;99.90;;;;;;5035472;28;20045;-48
2022/04/12 03:29:05;;;;;;;10.40;5.50;;;3.20;99.90;;;;;;5054337;28;20400;-48
2022/04/12 03:31:30;;;;;;;11.55;6.00;;;3.20;99.90;;;;;;5035852;28;20045;-48
2022/04/12 03:33:56;;;;;;;8.73;4.90;;;3.20;99.90;;;;;;5054406;28;20124;-47
2022/04/12 03:36:22;;;;;;;10.77;5.45;;;3.30;99.90;;;;;;5053361;28;20132;-50
2022/04/12 03:38:51;;;;;;;9.93;5.72;;;3.50;99.90;;;;;;5054259;28;20025;-47
2022/04/12 03:41:24;;;;;;;10.43;5.90;;;3.70;99.90;;;;;;5054062;28;20024;-48
2022/04/12 03:43:51;;;;;;;11.98;6.07;;;3.90;99.90;;;;;;5052166;28;20043;-48
2022/04/12 03:46:16;;;;;;;9.95;5.82;;;3.90;99.90;;;;;;5038944;28;20364;-48
2022/04/12 03:48:42;;;;;;;11.45;5.80;;;3.90;99.90;;;;;;5055028;28;20116;-48
2022/04/12 03:51:08;;;;;;;11.23;5.25;;;4.20;99.90;;;;;;5038343;28;20037;-48
2022/04/12 03:53:34;;;;;;;9.95;5.53;;;4.10;99.90;;;;;;5037491;28;20033;-51
2022/04/12 03:56:00;;;;;;;29.75;9.35;;;4.40;99.90;;;;;;5054970;28;20025;-48
2022/04/12 03:58:26;;;;;;;22.00;8.73;;;4.70;99.90;;;;;;5052930;28;20056;-48
2022/04/12 04:00:53;;;;;;;16.40;7.20;;;;;;;;;;5051611;28;20110;-48
2022/04/12 04:03:19;;;;;;;13.93;6.72;;;5.30;99.90;;;;;;5051547;28;20120;-48
2022/04/12 04:05:45;;;;;;;14.23;7.47;;;5.40;99.90;;;;;;5051760;28;20072;-49
2022/04/12 04:08:11;;;;;;;14.80;7.82;;;;;;;;;;5051227;28;20033;-48
2022/04/12 04:10:37;;;;;;;13.68;6.38;;;;;;;;;;5051647;28;20025;-48
2022/04/12 04:13:08;;;;;;;14.60;6.72;;;;;;;;;;5051819;28;20021;-48
2022/04/12 04:15:41;;;;;;;9.40;4.85;;;;;;;;;;5053393;28;20403;-47
2022/04/12 04:18:07;;;;;;;10.68;5.07;;;;;;;;;;5053494;28;20497;-49
2022/04/12 04:20:34;;;;;;;97.65;19.67;;;;;;;;;;5053240;28;20449;-47
2022/04/12 04:23:00;;;;;;;79.07;12.68;;;;;;;;;;5085342;28;20041;-48
2022/04/12 04:25:26;;;;;;;10.15;6.03;;;5.90;99.90;;;;;;5053793;28;20029;-47
2022/04/12 04:27:52;;;;;;;14.20;6.53;;;5.80;99.90;;;;;;5053891;28;20033;-49
2022/04/12 04:30:19;;;;;;;9.20;5.55;;;5.90;99.90;;;;;;5053905;28;20029;-47
2022/04/12 04:32:46;;;;;;;13.38;6.40;;;6.00;99.90;;;;;;5053194;28;20040;-47
2022/04/12 04:35:12;;;;;;;12.73;6.00;;;6.00;99.90;;;;;;5052737;28;20032;-48
2022/04/12 04:37:46;;;;;;;10.27;6.85;;;6.00;99.90;;;;;;5053636;28;20481;-49
2022/04/12 04:40:17;;;;;;;12.50;7.75;;;6.00;99.90;;;;;;5053588;28;20021;-49
2022/04/12 04:42:44;;;;;;;12.00;7.38;;;6.10;99.90;;;;;;5070581;28;20048;-50
2022/04/12 04:45:14;;;;;;;10.90;7.65;;;6.10;99.90;;;;;;5055278;28;20044;-49
2022/04/12 04:47:54;;;;;;;13.15;8.70;;;6.20;99.90;;;;;;5072231;28;20083;-47
2022/04/12 04:50:25;;;;;;;14.32;7.78;;;6.30;99.90;;;;;;5070819;28;20535;-47
2022/04/12 04:52:51;;;;;;;47.85;21.92;;;6.20;99.90;;;;;;5071384;28;20040;-48
2022/04/12 04:55:18;;;;;;;32.45;17.42;;;6.20;99.90;;;;;;5071474;28;20452;-48
2022/04/12 04:57:45;;;;;;;26.85;13.07;;;6.20;99.90;;;;;;5069877;28;20036;-49
2022/04/12 05:00:15;;;;;;;23.45;11.57;;;6.30;99.90;;;;;;5070964;28;20077;-47
2022/04/12 05:02:49;;;;;;;25.27;12.23;;;6.40;99.90;;;;;;5053898;28;20398;-49
2022/04/12 05:05:15;;;;;;;22.75;11.70;;;6.60;99.90;;;;;;5074069;28;20036;-48
2022/04/12 05:07:44;;;;;;;14.73;10.25;;;6.60;99.90;;;;;;5074461;28;20059;-47
2022/04/12 05:10:16;;;;;;;19.20;10.70;;;6.70;99.90;;;;;;5074797;28;20434;-49
2022/04/12 05:12:42;;;;;;;18.65;11.07;;;;;;;;;;5071182;28;20036;-48
2022/04/12 05:15:09;;;;;;;14.73;9.05;;;6.80;99.90;;;;;;5054764;28;20039;-48
2022/04/12 05:17:34;;;;;;;12.98;7.85;;;6.90;99.90;;;;;;5043453;28;20080;-48
2022/04/12 05:20:00;;;;;;;12.82;7.78;;;6.80;99.90;;;;;;5053124;28;20063;-48
2022/04/12 05:22:27;;;;;;;13.07;7.90;;;6.80;99.90;;;;;;5054111;28;20035;-48
2022/04/12 05:24:53;;;;;;;16.92;10.32;;;7.00;99.90;;;;;;5039124;28;20040;-48
2022/04/12 05:27:19;;;;;;;19.52;11.82;;;7.20;99.90;;;;;;5019472;28;20247;-49
2022/04/12 05:29:45;;;;;;;18.48;11.98;;;7.50;99.90;;;;;;5048672;28;20063;-48
2022/04/12 05:32:13;;;;;;;15.88;11.18;;;7.70;99.90;;;;;;5053202;28;20029;-48
2022/04/12 05:34:43;;;;;;;19.35;11.68;;;7.80;99.90;;;;;;5047832;28;20034;-48
2022/04/12 05:37:09;;;;;;;16.08;11.07;;;7.90;99.90;;;;;;5034395;28;20045;-48
2022/04/12 05:39:36;;;;;;;16.77;11.57;;;;;;;;;;5034347;28;20576;-48
2022/04/12 05:42:02;;;;;;;19.45;12.52;;;8.30;99.90;;;;;;5044237;28;20040;-49
2022/04/12 05:44:29;;;;;;;18.38;10.88;;;8.30;99.90;;;;;;5021027;28;20042;-47
2022/04/12 05:46:55;;;;;;;18.27;8.70;;;8.40;99.90;;;;;;5037226;28;20041;-48
2022/04/12 05:49:21;;;;;;;236.82;215.02;;;8.30;99.90;;;;;;5049828;28;20126;-49
2022/04/12 05:51:48;;;;;;;16.63;10.48;;;8.30;99.90;;;;;;5055299;28;20044;-48
2022/04/12 05:54:14;;;;;;;14.23;10.98;;;8.40;99.90;;;;;;5037582;28;20037;-49
2022/04/12 05:56:39;;;;;;;13.52;9.05;;;8.60;99.90;;;;;;5020695;28;20037;-48
2022/04/12 05:59:06;;;;;;;9.90;6.30;;;8.50;99.90;;;;;;5020855;28;20029;-48
2022/04/12 06:01:32;;;;;;;12.57;8.45;;;8.60;99.90;;;;;;5056066;28;20029;-49
2022/04/12 06:03:58;;;;;;;14.75;11.18;;;8.80;99.90;;;;;;5056028;28;20075;-49
2022/04/12 06:06:23;;;;;;;11.07;8.00;;;8.70;99.90;;;;;;5056011;28;20033;-48
2022/04/12 06:08:49;;;;;;;10.10;7.47;;;8.90;99.90;;;;;;5056234;28;20418;-49
2022/04/12 06:11:15;;;;;;;10.75;7.45;;;8.90;99.90;;;;;;5055851;28;20028;-48
2022/04/12 06:13:41;;;;;;;13.13;8.20;;;8.90;99.90;;;;;;5055967;28;20029;-48
2022/04/12 06:16:07;;;;;;;11.10;7.82;;;;;;;;;;5055174;28;20082;-48
2022/04/12 06:18:33;;;;;;;14.30;8.32;;;;;;;;;;5055677;28;20116;-48
2022/04/12 06:20:59;;;;;;;14.43;9.43;;;9.40;99.90;;;;;;5054611;28;20029;-48
2022/04/12 06:23:25;;;;;;;16.98;11.85;;;;;;;;;;5053660;28;20033;-48
2022/04/12 06:25:51;;;;;;;14.27;10.43;;;9.80;99.90;;;;;;5053306;28;20033;-49
2022/04/12 06:28:16;;;;;;;16.50;10.38;;;9.70;99.90;;;;;;5053474;28;20040;-49
2022/04/12 06:30:43;;;;;;;18.40;10.82;;;9.90;99.90;;;;;;5053428;28;20048;-48
2022/04/12 06:33:10;;;;;;;17.05;11.60;;;;;;;;;;5055193;28;20094;-48
2022/04/12 06:35:35;;;;;;;17.58;13.00;;;10.30;99.90;;;;;;5055336;28;20044;-48
2022/04/12 06:38:03;;;;;;;16.92;11.38;;;10.20;99.90;;;;;;5055334;28;20459;-49
2022/04/12 06:40:29;;;;;;;16.50;11.38;;;10.40;99.90;;;;;;5036547;28;20064;-48
2022/04/12 06:42:55;;;;;;;14.85;10.00;;;;;;;;;;5055357;28;20465;-49
2022/04/12 06:45:21;;;;;;;13.23;9.18;;;10.70;99.90;;;;;;5055326;28;20035;-48
2022/04/12 06:47:58;;;;;;;14.07;9.68;;;10.90;99.90;;;;;;5036256;28;20041;-48
2022/04/12 06:50:25;;;;;;;14.32;9.30;;;;;;;;;;5055308;28;20029;-48
2022/04/12 06:52:51;;;;;;;13.10;9.90;;;;;;;;;;5055220;28;20460;-48
2022/04/12 06:55:18;;;;;;;14.75;10.13;;;;;;;;;;5054829;28;20043;-48
2022/04/12 06:57:44;;;;;;;12.85;9.63;;;;;;;;;;5055166;28;20098;-48
2022/04/12 07:00:10;;;;;;;12.63;10.05;;;11.30;99.90;;;;;;5054764;28;20033;-48
2022/04/12 07:02:37;;;;;;;12.57;9.20;;;;;;;;;;5054941;28;20365;-48
2022/04/12 07:05:04;;;;;;;15.65;9.98;;;;;;;;;;5054646;28;20028;-48
2022/04/12 07:07:30;;;;;;;14.65;10.05;;;;;;;;;;5052434;28;20433;-48
2022/04/12 07:09:56;;;;;;;14.25;10.27;;;;;;;;;;5054542;28;20025;-48
2022/04/12 07:12:24;;;;;;;19.67;11.70;;;;;;;;;;5054759;28;20029;-48
2022/04/12 07:14:51;;;;;;;18.83;11.98;;;;;;;;;;5054668;28;20033;-48
2022/04/12 07:17:17;;;;;;;26.85;12.65;;;;;;;;;;5054373;28;20036;-48
2022/04/12 07:19:44;;;;;;;13.63;9.02;;;12.60;99.90;;;;;;5054611;28;20017;-49
2022/04/12 07:22:10;;;;;;;17.48;10.25;;;12.70;99.90;;;;;;5054409;28;20462;-48
2022/04/12 07:24:36;;;;;;;12.38;9.65;;;12.70;99.90;;;;;;5052349;28;20043;-48
2022/04/12 07:27:02;;;;;;;15.02;10.77;;;;;;;;;;5053312;28;20060;-48
2022/04/12 07:29:29;;;;;;;12.55;8.63;;;;;;;;;;5054305;28;20029;-49
2022/04/12 07:31:56;;;;;;;10.38;7.60;;;;;;;;;;5054320;28;20035;-49
2022/04/12 07:34:22;;;;;;;14.18;7.95;;;;;;;;;;5054137;28;20453;-49
2022/04/12 07:36:53;;;;;;;13.98;8.80;;;;;;;;;;5054094;28;20053;-49
2022/04/12 07:39:20;;;;;;;11.63;8.65;;;;;;;;;;5054079;28;20108;-48
2022/04/12 07:41:47;;;;;;;11.52;7.95;;;14.20;99.90;;;;;;5053984;28;20025;-48
2022/04/12 07:44:17;;;;;;;11.27;8.20;;;14.40;99.90;;;;;;5053759;28;20108;-48
2022/04/12 07:46:42;;;;;;;12.32;7.22;;;14.40;99.90;;;;;;5035026;28;20492;-49
2022/04/12 07:49:08;;;;;;;8.95;6.18;;;14.40;99.90;;;;;;5053367;28;20029;-49
2022/04/12 07:51:34;;;;;;;8.30;6.03;;;14.70;99.90;;;;;;5052861;28;20029;-48
2022/04/12 07:54:01;;;;;;;8.52;5.97;;;15.00;99.90;;;;;;5067937;28;20037;-49
2022/04/12 07:56:28;;;;;;;12.43;5.70;;;;;;;;;;5052788;28;20040;-50
2022/04/12 07:58:54;;;;;;;7.18;5.28;;;15.60;99.90;;;;;;5069423;28;20040;-52
2022/04/12 08:01:20;;;;;;;8.73;5.72;;;15.60;99.90;;;;;;5069298;28;20555;-50
2022/04/12 08:03:47;;;;;;;904.72;836.00;;;15.90;99.90;;;;;;5070817;28;20056;-50
2022/04/12 08:06:13;;;;;;;946.33;875.13;;;;;;;;;;5071062;28;20028;-50
2022/04/12 08:08:39;;;;;;;5.70;4.47;;;;;;;;;;5064173;28;20043;-51
2022/04/12 08:11:05;;;;;;;6.13;4.50;;;16.50;99.90;;;;;;5063577;28;20373;-51
2022/04/12 08:13:32;;;;;;;5.85;4.45;;;;;;;;;;5034947;28;20123;-51
2022/04/12 08:15:58;;;;;;;7.32;3.72;;;;;;;;;;5069038;28;20052;-51
2022/04/12 08:18:24;;;;;;;80.20;71.78;;;16.80;99.10;;;;;;5064317;28;20040;-50
2022/04/12 08:20:50;;;;;;;66.57;48.42;;;17.10;99.40;;;;;;5051919;28;20595;-51
2022/04/12 08:23:17;;;;;;;11.30;4.25;;;;;;;;;;5050243;28;20043;-50
2022/04/12 08:25:43;;;;;;;4.30;2.83;;;17.70;98.60;;;;;;5054765;28;20037;-51
2022/04/12 08:28:09;;;;;;;6.50;3.03;;;17.50;94.90;;;;;;5035889;28;20506;-51
2022/04/12 08:30:36;;;;;;;6.22;2.70;;;17.10;93.00;;;;;;5052463;28;20029;-51
2022/04/12 08:33:02;;;;;;;899.92;830.92;;;17.90;95.00;;;;;;5052048;28;20033;-50
2022/04/12 08:35:28;;;;;;;768.97;716.33;;;17.90;92.20;;;;;;5055523;28;20152;-51
2022/04/12 08:37:54;;;;;;;633.13;589.22;;;17.70;92.10;;;;;;5033403;28;20056;-51
2022/04/12 08:40:20;;;;;;;8.38;6.57;;;18.30;93.30;;;;;;5051053;28;20531;-50
2022/04/12 08:42:47;;;;;;;6.68;2.78;;;;;;;;;;5050544;28;20029;-52
2022/04/12 08:45:13;;;;;;;4.95;2.75;;;19.20;96.30;;;;;;5051997;28;20024;-50
2022/04/12 08:47:42;;;;;;;361.40;336.77;;;18.90;91.70;;;;;;5052068;28;20139;-48
2022/04/12 08:50:09;;;;;;;1045.43;969.63;;;18.60;91.00;;;;;;5052709;28;20029;-45
2022/04/12 08:52:36;;;;;;;645.17;600.53;;;19.10;90.70;;;;;;5052349;28;20033;-45
2022/04/12 08:55:03;;;;;;;458.60;425.55;;;19.30;89.20;;;;;;5032001;28;20483;-45
2022/04/12 08:57:29;;;;;;;5.65;3.00;;;18.70;85.30;;;;;;5034045;28;20037;-45
2022/04/12 08:59:55;;;;;;;3.97;2.20;;;18.50;86.20;;;;;;5052698;28;20082;-45
2022/04/12 09:02:22;;;;;;;6.20;2.55;;;19.20;85.80;;;;;;5050769;28;20033;-46
2022/04/12 09:04:48;;;;;;;3.92;2.20;;;;;;;;;;5052820;28;20047;-46
2022/04/12 09:07:14;;;;;;;4.78;2.40;;;19.50;82.60;;;;;;5052578;28;20033;-46
2022/04/12 09:09:42;;;;;;;2.53;1.58;;;19.80;84.10;;;;;;5067318;28;20045;-46
2022/04/12 09:12:13;;;;;;;2.50;1.88;;;19.90;80.70;;;;;;5052610;28;20056;-46
2022/04/12 09:14:39;;;;;;;2.53;1.60;;;19.90;81.50;;;;;;5050087;28;20116;-46
2022/04/12 09:17:08;;;;;;;2.05;1.40;;;19.90;80.50;;;;;;5050510;28;20114;-46
2022/04/12 09:19:48;;;;;;;13.13;5.93;;;20.30;80.10;;;;;;5050412;28;20033;-46
2022/04/12 09:22:24;;;;;;;5.53;1.90;;;20.00;80.10;;;;;;5033979;28;20060;-46
2022/04/12 09:24:56;;;;;;;3.55;1.88;;;20.40;81.60;;;;;;5050368;28;20045;-46
2022/04/12 09:27:27;;;;;;;3.83;2.08;;;19.90;78.40;;;;;;5050252;28;20041;-46
2022/04/12 09:29:57;;;;;;;4.00;1.83;;;20.70;79.90;;;;;;5016789;28;20232;-45
2022/04/12 09:32:27;;;;;;;4.38;1.80;;;20.70;79.30;;;;;;5050423;28;20060;-46
2022/04/12 09:34:54;;;;;;;4.10;1.80;;;20.50;79.60;;;;;;5050224;28;20069;-46
2022/04/12 09:37:22;;;;;;;3.00;1.80;;;21.20;79.20;;;;;;5050166;28;20540;-46
2022/04/12 09:40:00;;;;;;;2.67;1.48;;;21.60;79.20;;;;;;5048117;28;20044;-47
2022/04/12 09:43:01;;;;;;;6.65;2.15;;;22.20;79.90;;;;;;5029226;28;20026;-46
2022/04/12 09:45:30;;;;;;;9.63;2.55;;;21.40;79.10;;;;;;5035665;28;20041;-46
2022/04/12 09:48:04;;;;;;;3.75;1.95;;;21.60;79.60;;;;;;5050543;28;20480;-46
2022/04/12 09:50:31;;;;;;;5.90;2.13;;;20.80;77.80;;;;;;5032288;28;20061;-46
2022/04/12 09:52:58;;;;;;;4.53;1.83;;;21.30;79.00;;;;;;5054143;28;20108;-47
2022/04/12 09:55:40;;;;;;;10.30;2.30;;;21.30;78.80;;;;;;5054499;28;20062;-46
2022/04/12 09:58:17;;;;;;;2.33;1.70;;;21.40;77.60;;;;;;5048143;28;20083;-46
2022/04/12 10:00:47;;;;;;;3.50;1.85;;;22.10;78.30;;;;;;5054117;28;20040;-46
2022/04/12 10:03:14;;;;;;;3.95;1.65;;;;;;;;;;5054708;28;20028;-46
2022/04/12 10:05:40;;;;;;;4.57;1.63;;;22.90;94.60;;;;;;5054636;28;20468;-47
2022/04/12 10:08:12;;;;;;;3.90;1.80;;;22.60;84.30;;;;;;5054599;28;20037;-46
2022/04/12 10:10:40;;;;;;;5.45;1.88;;;;;;;;;;5054722;28;20104;-46
2022/04/12 10:13:07;;;;;;;9.20;3.28;;;;;;;;;;5054556;28;20033;-46
2022/04/12 10:15:33;;;;;;;3.67;1.88;;;;;;;;;;5054364;28;20081;-46
2022/04/12 10:17:59;;;;;;;2.83;2.05;;;23.30;76.20;;;;;;5053816;28;20032;-46
2022/04/12 10:20:24;;;;;;;6.82;2.28;;;22.80;75.60;;;;;;5052322;28;20032;-48
2022/04/12 10:22:50;;;;;;;4.43;1.80;;;22.70;76.70;;;;;;5051731;28;20083;-46
2022/04/12 10:25:20;;;;;;;12.70;3.47;;;23.00;75.90;;;;;;5064233;28;20494;-50
2022/04/12 10:27:47;;;;;;;5.15;2.00;;;23.50;89.90;;;;;;5053877;28;20041;-45
2022/04/12 10:30:18;;;;;;;5.40;2.70;;;23.60;76.80;;;;;;5051502;28;20159;-47
2022/04/12 10:33:07;;;;;;;4.57;2.25;;;23.80;76.30;;;;;;5051224;28;20059;-48
2022/04/12 10:35:42;;;;;;;4.30;1.70;;;23.60;75.70;;;;;;5052150;28;20068;-45
2022/04/12 10:38:09;;;;;;;4.25;1.98;;;22.80;73.90;;;;;;5019882;28;20127;-49
2022/04/12 10:40:35;;;;;;;3.63;1.88;;;23.40;74.70;;;;;;5055163;28;20064;-49
2022/04/12 10:43:04;;;;;;;2.45;1.70;;;;;;;;;;5055161;28;20029;-47
2022/04/12 10:45:32;;;;;;;6.90;2.10;;;24.50;85.40;;;;;;5055116;28;20045;-49
2022/04/12 10:47:59;;;;;;;3.10;1.75;;;;;;;;;;5036455;28;20128;-48
2022/04/12 10:50:25;;;;;;;3.53;2.10;;;;;;;;;;5055179;28;20032;-47
2022/04/12 10:52:51;;;;;;;6.20;3.45;;;24.20;97.70;;;;;;5054844;28;20029;-50
2022/04/12 10:55:23;;;;;;;3.90;2.63;;;23.50;95.80;;;;;;5054941;28;20033;-50
2022/04/12 10:57:50;;;;;;;;;;;23.60;82.80;;;;;;5037136;28;20033;-47
2022/04/12 11:00:16;;;;;;;3.65;2.35;;;24.00;81.80;;;;;;5054696;28;19909;-47
2022/04/12 11:02:52;;;;;;;5.30;2.33;;;23.60;74.80;;;;;;5036005;28;20083;-48
2022/04/12 11:05:44;;;;;;;3.03;1.73;;;23.30;72.60;;;;;;5003302;28;20353;-49
2022/04/12 11:08:33;;;;;;;3.35;2.13;;;23.20;71.90;;;;;;5048750;28;20041;-47
2022/04/12 11:11:09;;;;;;;3.40;1.88;;;23.40;73.30;;;;;;5048116;28;20029;-47
2022/04/12 11:13:35;;;;;;;5.45;1.70;;;;;;;;;;5054326;28;20036;-46
2022/04/12 11:16:03;;;;;;;3.90;1.73;;;;;;;;;;5054685;28;20373;-49
2022/04/12 11:18:48;;;;;;;5.50;2.63;;;;;;;;;;5054332;28;20040;-49
2022/04/12 11:21:15;;;;;;;3.13;2.15;;;24.50;71.10;;;;;;5052229;28;20445;-45
2022/04/12 11:23:54;;;;;;;3.05;1.70;;;24.50;74.80;;;;;;5054259;28;20021;-51
2022/04/12 11:26:28;;;;;;;4.75;1.88;;;;;;;;;;5054532;28;20033;-49
2022/04/12 11:28:57;;;;;;;2.85;1.67;;;24.60;82.70;;;;;;5053938;28;20120;-51
2022/04/12 11:31:23;;;;;;;7.57;2.58;;;23.70;72.00;;;;;;5054228;28;20452;-49
2022/04/12 11:33:49;;;;;;;5.65;2.22;;;23.80;74.90;;;;;;5035868;28;20123;-47
2022/04/12 11:36:21;;;;;;;3.65;2.00;;;24.50;75.60;;;;;;5053781;28;20060;-48
2022/04/12 11:38:47;;;;;;;9.27;2.40;;;24.20;72.40;;;;;;5054054;28;20074;-48
2022/04/12 11:41:14;;;;;;;5.80;2.75;;;24.10;72.80;;;;;;5053980;28;20104;-51
2022/04/12 11:43:40;;;;;;;3.15;1.80;;;23.70;74.10;;;;;;5053875;28;20563;-48
2022/04/12 11:46:06;;;;;;;4.97;1.90;;;23.40;74.10;;;;;;5053964;28;20108;-46
2022/04/12 11:48:32;;;;;;;4.38;1.50;;;23.80;73.30;;;;;;5054018;28;20503;-48
2022/04/12 11:51:03;;;;;;;2.08;1.67;;;;;;;;;;5031419;28;20465;-47
2022/04/12 11:53:29;;;;;;;3.80;1.65;;;;;;;;;;5031692;28;20087;-47
2022/04/12 11:56:03;;;;;;;3.55;1.98;;;25.00;72.40;;;;;;5031319;28;20159;-49
2022/04/12 11:58:30;;;;;;;5.07;2.13;;;24.70;72.60;;;;;;5014793;28;20065;-49
2022/04/12 12:00:57;;;;;;;3.20;1.98;;;24.60;73.00;;;;;;5031803;28;20038;-49
2022/04/12 12:03:24;;;;;;;4.43;2.00;;;24.30;72.90;;;;;;5014807;28;20067;-47
2022/04/12 12:05:49;;;;;;;4.30;2.58;;;24.30;73.80;;;;;;5031359;28;20041;-46
2022/04/12 12:08:22;;;;;;;2.97;1.98;;;24.70;73.40;;;;;;5031590;28;20156;-48
2022/04/12 12:10:52;;;;;;;4.97;1.80;;;24.40;71.70;;;;;;5014886;28;20044;-47
2022/04/12 12:13:23;;;;;;;3.75;2.20;;;24.40;73.50;;;;;;5014050;28;20044;-50
2022/04/12 12:15:49;;;;;;;4.00;2.10;;;24.20;70.50;;;;;;5013922;28;20073;-48
2022/04/12 12:18:18;;;;;;;3.95;1.77;;;23.90;69.80;;;;;;5030980;28;20060;-47
2022/04/12 12:20:47;;;;;;;2.38;1.70;;;24.20;71.60;;;;;;5014053;28;20037;-47
2022/04/12 12:23:12;;;;;;;3.47;1.92;;;24.80;74.10;;;;;;5051525;28;20441;-50
2022/04/12 12:25:47;;;;;;;2.38;1.50;;;25.10;71.90;;;;;;5053654;28;20029;-47
2022/04/12 12:28:16;;;;;;;1.77;1.35;;;24.60;69.80;;;;;;5045983;28;20045;-48
2022/04/12 12:30:47;;;;;;;7.32;2.25;;;25.00;69.90;;;;;;5050650;28;20025;-46
2022/04/12 12:33:13;;;;;;;3.85;1.77;;;;;;;;;;5052619;28;20040;-47
2022/04/12 12:35:45;;;;;;;2.90;1.75;;;;;;;;;;5033695;28;20072;-48
2022/04/12 12:38:15;;;;;;;3.95;1.65;;;25.00;77.70;;;;;;5053208;28;20029;-51
2022/04/12 12:40:43;;;;;;;2.53;1.80;;;25.20;69.20;;;;;;5050445;28;20029;-48
2022/04/12 12:43:10;;;;;;;6.45;1.60;;;;;;;;;;5048300;28;20025;-46
2022/04/12 12:45:38;;;;;;;2.67;1.50;;;;;;;;;;5053146;28;20041;-50
2022/04/12 12:48:07;;;;;;;4.43;2.03;;;;;;;;;;5052761;28;20036;-49
2022/04/12 12:50:34;;;;;;;4.65;1.52;;;;;;;;;;5052179;28;20079;-47
2022/04/12 12:53:01;;;;;;;3.33;1.27;;;;;;;;;;5052571;28;20325;-49
2022/04/12 12:55:31;;;;;;;4.68;1.75;;;;;;;;;;5052512;28;20024;-48
2022/04/12 12:58:03;;;;;;;2.08;1.42;;;;;;;;;;5050245;28;20033;-50
2022/04/12 13:00:29;;;;;;;3.65;1.45;;;;;;;;;;5052939;28;20033;-48
2022/04/12 13:03:16;;;;;;;2.30;1.30;;;;;;;;;;5053053;28;20036;-53
2022/04/12 13:05:54;;;;;;;1.85;1.45;;;;;;;;;;5052655;28;20025;-48
2022/04/12 13:08:24;;;;;;;3.45;2.08;;;;;;;;;;5051929;28;20029;-50
2022/04/12 13:10:50;;;;;;;5.40;1.70;;;;;;;;;;5052131;28;20112;-46
2022/04/12 13:13:17;;;;;;;4.50;1.42;;;;;;;;;;5052225;28;20063;-51